Main page
METAR-TAF:

METAR-TAF

Airports :

Piacenza Air Base

Piacenza, Italy

latitude: 44-55N, longitude: 009-44E, elevation: 134 m

Current weather observation

The report was made 1 hour and 23 minutes ago, at 11:55 UTC
Wind 2 kt from the Northwest
Temperature 27°C
Humidity 66%
Pressure 1015 hPa
Visibility 10 km or more
no clouds below 1500 m and no cumulonimbus

METAR: LIMS 171155Z 32002KT CAVOK 27/20 Q1015 RMK SCT SCT200 VIS MIN 9999 WIND THR30 06005KT BLU

Time: 15:18 (13:18 UTC)


TAF: missing

Weather observations and forecasts of more than 4000 airports (METAR and TAF reports).

The available stations are represented by yellow and red dots on the map.

Hover mouse over dot to see the name of the station.

Then click to see weather observations and forecasts.

To change the map : click on the green buttons with a black cross to zoom in, on the green button with a dash to zoom out, or on the green arrows for adjacent maps.


METAR-TAF: